sensor_id;sensor_type;location;lat;lon;timestamp;P1;durP1;ratioP1;P2;durP2;ratioP2
14306;SDS011;7237;49.500;11.400;2023-04-06T00:00:40;4.00;;;2.67;;
14306;SDS011;7237;49.500;11.400;2023-04-06T00:03:08;4.20;;;2.47;;
14306;SDS011;7237;49.500;11.400;2023-04-06T00:05:36;4.33;;;2.60;;
14306;SDS011;7237;49.500;11.400;2023-04-06T00:08:03;5.33;;;2.57;;
14306;SDS011;7237;49.500;11.400;2023-04-06T00:10:30;4.83;;;2.47;;
14306;SDS011;7237;49.500;11.400;2023-04-06T00:12:57;3.40;;;2.43;;
14306;SDS011;7237;49.500;11.400;2023-04-06T00:15:25;3.47;;;2.47;;
14306;SDS011;7237;49.500;11.400;2023-04-06T00:17:52;3.37;;;2.57;;
14306;SDS011;7237;49.500;11.400;2023-04-06T00:20:20;3.20;;;2.60;;
14306;SDS011;7237;49.500;11.400;2023-04-06T00:22:47;4.53;;;2.80;;
14306;SDS011;7237;49.500;11.400;2023-04-06T00:25:15;2.80;;;2.40;;
14306;SDS011;7237;49.500;11.400;2023-04-06T00:27:42;4.13;;;2.57;;
14306;SDS011;7237;49.500;11.400;2023-04-06T00:30:09;5.30;;;3.00;;
14306;SDS011;7237;49.500;11.400;2023-04-06T00:32:36;3.00;;;2.70;;
14306;SDS011;7237;49.500;11.400;2023-04-06T00:35:04;2.93;;;2.17;;
14306;SDS011;7237;49.500;11.400;2023-04-06T00:37:33;3.70;;;2.97;;
14306;SDS011;7237;49.500;11.400;2023-04-06T00:40:00;4.20;;;2.60;;
14306;SDS011;7237;49.500;11.400;2023-04-06T00:42:27;3.10;;;2.40;;
14306;SDS011;7237;49.500;11.400;2023-04-06T00:44:55;2.87;;;2.60;;
14306;SDS011;7237;49.500;11.400;2023-04-06T00:47:22;4.13;;;2.80;;
14306;SDS011;7237;49.500;11.400;2023-04-06T00:49:50;3.50;;;2.80;;
14306;SDS011;7237;49.500;11.400;2023-04-06T00:52:18;3.47;;;2.77;;
14306;SDS011;7237;49.500;11.400;2023-04-06T00:54:46;3.03;;;2.50;;
14306;SDS011;7237;49.500;11.400;2023-04-06T00:57:13;4.00;;;2.73;;
14306;SDS011;7237;49.500;11.400;2023-04-06T00:59:42;4.30;;;2.87;;
14306;SDS011;7237;49.500;11.400;2023-04-06T01:02:09;3.17;;;2.87;;
14306;SDS011;7237;49.500;11.400;2023-04-06T01:04:36;3.10;;;2.53;;
14306;SDS011;7237;49.500;11.400;2023-04-06T01:07:03;4.63;;;2.87;;
14306;SDS011;7237;49.500;11.400;2023-04-06T01:09:30;4.37;;;2.77;;
14306;SDS011;7237;49.500;11.400;2023-04-06T01:11:59;3.40;;;2.73;;
14306;SDS011;7237;49.500;11.400;2023-04-06T01:14:27;3.93;;;2.80;;
14306;SDS011;7237;49.500;11.400;2023-04-06T01:16:54;4.27;;;2.67;;
14306;SDS011;7237;49.500;11.400;2023-04-06T01:19:21;4.83;;;3.00;;
14306;SDS011;7237;49.500;11.400;2023-04-06T01:21:48;8.57;;;3.27;;
14306;SDS011;7237;49.500;11.400;2023-04-06T01:24:19;4.13;;;2.87;;
14306;SDS011;7237;49.500;11.400;2023-04-06T01:26:46;6.67;;;2.77;;
14306;SDS011;7237;49.500;11.400;2023-04-06T01:29:13;4.10;;;2.90;;
14306;SDS011;7237;49.500;11.400;2023-04-06T01:31:40;5.27;;;3.40;;
14306;SDS011;7237;49.500;11.400;2023-04-06T01:34:07;4.17;;;2.80;;
14306;SDS011;7237;49.500;11.400;2023-04-06T01:36:35;3.87;;;2.70;;
14306;SDS011;7237;49.500;11.400;2023-04-06T01:39:02;4.53;;;3.13;;
14306;SDS011;7237;49.500;11.400;2023-04-06T01:41:30;4.67;;;3.07;;
14306;SDS011;7237;49.500;11.400;2023-04-06T01:43:57;3.97;;;2.90;;
14306;SDS011;7237;49.500;11.400;2023-04-06T01:46:25;4.93;;;2.83;;
14306;SDS011;7237;49.500;11.400;2023-04-06T01:48:52;4.93;;;2.93;;
14306;SDS011;7237;49.500;11.400;2023-04-06T01:51:19;5.80;;;3.23;;
14306;SDS011;7237;49.500;11.400;2023-04-06T01:53:46;4.27;;;3.00;;
14306;SDS011;7237;49.500;11.400;2023-04-06T01:56:14;8.67;;;3.30;;
14306;SDS011;7237;49.500;11.400;2023-04-06T01:58:42;5.13;;;3.10;;
14306;SDS011;7237;49.500;11.400;2023-04-06T02:01:09;3.57;;;2.83;;
14306;SDS011;7237;49.500;11.400;2023-04-06T02:03:36;3.87;;;2.87;;
14306;SDS011;7237;49.500;11.400;2023-04-06T02:06:04;3.60;;;3.10;;
14306;SDS011;7237;49.500;11.400;2023-04-06T02:08:31;3.77;;;2.60;;
14306;SDS011;7237;49.500;11.400;2023-04-06T02:10:58;5.63;;;3.30;;
14306;SDS011;7237;49.500;11.400;2023-04-06T02:13:25;4.70;;;3.10;;
14306;SDS011;7237;49.500;11.400;2023-04-06T02:15:53;4.37;;;2.90;;
14306;SDS011;7237;49.500;11.400;2023-04-06T02:18:20;3.97;;;3.00;;
14306;SDS011;7237;49.500;11.400;2023-04-06T02:20:47;6.60;;;3.20;;
14306;SDS011;7237;49.500;11.400;2023-04-06T02:23:15;4.83;;;3.00;;
14306;SDS011;7237;49.500;11.400;2023-04-06T02:25:42;3.80;;;2.83;;
14306;SDS011;7237;49.500;11.400;2023-04-06T02:28:09;3.33;;;2.93;;
14306;SDS011;7237;49.500;11.400;2023-04-06T02:30:36;5.40;;;2.87;;
14306;SDS011;7237;49.500;11.400;2023-04-06T02:33:04;3.77;;;3.00;;
14306;SDS011;7237;49.500;11.400;2023-04-06T02:35:31;6.50;;;3.00;;
14306;SDS011;7237;49.500;11.400;2023-04-06T02:37:58;4.60;;;3.07;;
14306;SDS011;7237;49.500;11.400;2023-04-06T02:40:25;5.20;;;3.20;;
14306;SDS011;7237;49.500;11.400;2023-04-06T02:42:52;3.23;;;2.67;;
14306;SDS011;7237;49.500;11.400;2023-04-06T02:45:19;3.67;;;3.10;;
14306;SDS011;7237;49.500;11.400;2023-04-06T02:47:46;3.53;;;2.40;;
14306;SDS011;7237;49.500;11.400;2023-04-06T02:50:15;3.73;;;2.80;;
14306;SDS011;7237;49.500;11.400;2023-04-06T02:52:42;4.03;;;2.97;;
14306;SDS011;7237;49.500;11.400;2023-04-06T02:55:09;3.67;;;3.03;;
14306;SDS011;7237;49.500;11.400;2023-04-06T02:57:36;2.93;;;2.67;;
14306;SDS011;7237;49.500;11.400;2023-04-06T03:00:03;3.97;;;2.97;;
14306;SDS011;7237;49.500;11.400;2023-04-06T03:02:31;4.50;;;2.87;;
14306;SDS011;7237;49.500;11.400;2023-04-06T03:04:58;3.60;;;2.63;;
14306;SDS011;7237;49.500;11.400;2023-04-06T03:07:27;9.17;;;3.30;;
14306;SDS011;7237;49.500;11.400;2023-04-06T03:09:54;5.23;;;3.17;;
14306;SDS011;7237;49.500;11.400;2023-04-06T03:12:21;6.60;;;2.97;;
14306;SDS011;7237;49.500;11.400;2023-04-06T03:14:48;4.30;;;3.00;;
14306;SDS011;7237;49.500;11.400;2023-04-06T03:17:15;6.20;;;3.00;;
14306;SDS011;7237;49.500;11.400;2023-04-06T03:19:42;3.40;;;2.80;;
14306;SDS011;7237;49.500;11.400;2023-04-06T03:22:09;3.63;;;2.87;;
14306;SDS011;7237;49.500;11.400;2023-04-06T03:24:38;6.20;;;2.97;;
14306;SDS011;7237;49.500;11.400;2023-04-06T03:27:05;4.03;;;2.90;;
14306;SDS011;7237;49.500;11.400;2023-04-06T03:29:32;5.63;;;2.80;;
14306;SDS011;7237;49.500;11.400;2023-04-06T03:31:59;4.20;;;2.93;;
14306;SDS011;7237;49.500;11.400;2023-04-06T03:34:26;3.63;;;2.90;;
14306;SDS011;7237;49.500;11.400;2023-04-06T03:36:53;5.13;;;3.23;;
14306;SDS011;7237;49.500;11.400;2023-04-06T03:39:20;3.67;;;2.90;;
14306;SDS011;7237;49.500;11.400;2023-04-06T03:41:48;3.40;;;3.03;;
14306;SDS011;7237;49.500;11.400;2023-04-06T03:44:15;5.20;;;2.90;;
14306;SDS011;7237;49.500;11.400;2023-04-06T03:46:42;9.53;;;2.93;;
14306;SDS011;7237;49.500;11.400;2023-04-06T03:49:10;4.57;;;3.03;;
14306;SDS011;7237;49.500;11.400;2023-04-06T03:51:37;4.67;;;3.43;;
14306;SDS011;7237;49.500;11.400;2023-04-06T03:54:04;3.20;;;2.90;;
14306;SDS011;7237;49.500;11.400;2023-04-06T03:56:31;4.50;;;3.07;;
14306;SDS011;7237;49.500;11.400;2023-04-06T03:58:59;4.70;;;3.27;;
14306;SDS011;7237;49.500;11.400;2023-04-06T04:01:26;4.20;;;2.93;;
14306;SDS011;7237;49.500;11.400;2023-04-06T04:03:54;5.03;;;3.00;;
14306;SDS011;7237;49.500;11.400;2023-04-06T04:06:21;4.07;;;2.53;;
14306;SDS011;7237;49.500;11.400;2023-04-06T04:08:48;4.10;;;2.87;;
14306;SDS011;7237;49.500;11.400;2023-04-06T04:11:15;5.40;;;2.87;;
14306;SDS011;7237;49.500;11.400;2023-04-06T04:13:42;3.33;;;2.93;;
14306;SDS011;7237;49.500;11.400;2023-04-06T04:16:11;4.13;;;3.10;;
14306;SDS011;7237;49.500;11.400;2023-04-06T04:18:38;3.10;;;2.80;;
14306;SDS011;7237;49.500;11.400;2023-04-06T04:21:05;3.07;;;2.77;;
14306;SDS011;7237;49.500;11.400;2023-04-06T04:23:32;4.90;;;2.93;;
14306;SDS011;7237;49.500;11.400;2023-04-06T04:25:59;4.57;;;3.10;;
14306;SDS011;7237;49.500;11.400;2023-04-06T04:28:26;3.20;;;2.80;;
14306;SDS011;7237;49.500;11.400;2023-04-06T04:30:53;4.37;;;3.00;;
14306;SDS011;7237;49.500;11.400;2023-04-06T04:33:21;3.77;;;3.10;;
14306;SDS011;7237;49.500;11.400;2023-04-06T04:35:48;3.80;;;3.10;;
14306;SDS011;7237;49.500;11.400;2023-04-06T04:38:15;5.00;;;3.40;;
14306;SDS011;7237;49.500;11.400;2023-04-06T04:40:42;4.33;;;3.60;;
14306;SDS011;7237;49.500;11.400;2023-04-06T04:43:10;4.87;;;3.20;;
14306;SDS011;7237;49.500;11.400;2023-04-06T04:45:37;3.83;;;3.00;;
14306;SDS011;7237;49.500;11.400;2023-04-06T04:48:04;4.00;;;3.00;;
14306;SDS011;7237;49.500;11.400;2023-04-06T04:50:34;2.83;;;2.60;;
14306;SDS011;7237;49.500;11.400;2023-04-06T04:53:01;2.57;;;2.37;;
14306;SDS011;7237;49.500;11.400;2023-04-06T04:55:30;3.00;;;2.73;;
14306;SDS011;7237;49.500;11.400;2023-04-06T04:57:57;3.03;;;2.70;;
14306;SDS011;7237;49.500;11.400;2023-04-06T05:00:24;4.67;;;2.80;;
14306;SDS011;7237;49.500;11.400;2023-04-06T05:02:51;4.93;;;2.93;;
14306;SDS011;7237;49.500;11.400;2023-04-06T05:05:18;3.47;;;2.70;;
14306;SDS011;7237;49.500;11.400;2023-04-06T05:07:47;4.80;;;3.23;;
14306;SDS011;7237;49.500;11.400;2023-04-06T05:10:14;3.53;;;2.73;;
14306;SDS011;7237;49.500;11.400;2023-04-06T05:12:41;6.03;;;3.20;;
14306;SDS011;7237;49.500;11.400;2023-04-06T05:15:08;3.60;;;3.30;;
14306;SDS011;7237;49.500;11.400;2023-04-06T05:17:36;3.90;;;3.00;;
14306;SDS011;7237;49.500;11.400;2023-04-06T05:20:03;3.40;;;3.10;;
14306;SDS011;7237;49.500;11.400;2023-04-06T05:22:30;4.00;;;3.10;;
14306;SDS011;7237;49.500;11.400;2023-04-06T05:24:58;3.47;;;2.80;;
14306;SDS011;7237;49.500;11.400;2023-04-06T05:27:25;4.77;;;3.10;;
14306;SDS011;7237;49.500;11.400;2023-04-06T05:29:52;5.60;;;3.10;;
14306;SDS011;7237;49.500;11.400;2023-04-06T05:32:19;3.20;;;2.80;;
14306;SDS011;7237;49.500;11.400;2023-04-06T05:34:49;4.50;;;3.20;;
14306;SDS011;7237;49.500;11.400;2023-04-06T05:37:16;3.23;;;2.93;;
14306;SDS011;7237;49.500;11.400;2023-04-06T05:39:43;3.90;;;2.83;;
14306;SDS011;7237;49.500;11.400;2023-04-06T05:42:12;6.50;;;3.37;;
14306;SDS011;7237;49.500;11.400;2023-04-06T05:44:39;5.97;;;3.40;;
14306;SDS011;7237;49.500;11.400;2023-04-06T05:47:06;4.77;;;3.50;;
14306;SDS011;7237;49.500;11.400;2023-04-06T05:49:33;3.50;;;3.20;;
14306;SDS011;7237;49.500;11.400;2023-04-06T05:52:00;5.30;;;3.47;;
14306;SDS011;7237;49.500;11.400;2023-04-06T05:54:27;4.27;;;3.30;;
14306;SDS011;7237;49.500;11.400;2023-04-06T05:56:54;9.73;;;3.10;;
14306;SDS011;7237;49.500;11.400;2023-04-06T05:59:22;4.50;;;3.30;;
14306;SDS011;7237;49.500;11.400;2023-04-06T06:01:49;3.10;;;2.80;;
14306;SDS011;7237;49.500;11.400;2023-04-06T06:04:16;3.60;;;2.70;;
14306;SDS011;7237;49.500;11.400;2023-04-06T06:06:43;3.80;;;3.07;;
14306;SDS011;7237;49.500;11.400;2023-04-06T06:09:10;3.73;;;3.13;;
14306;SDS011;7237;49.500;11.400;2023-04-06T06:11:37;5.37;;;3.33;;
14306;SDS011;7237;49.500;11.400;2023-04-06T06:14:05;4.33;;;3.30;;
14306;SDS011;7237;49.500;11.400;2023-04-06T06:16:34;4.80;;;2.73;;
14306;SDS011;7237;49.500;11.400;2023-04-06T06:19:01;4.95;;;2.83;;
14306;SDS011;7237;49.500;11.400;2023-04-06T06:21:28;5.53;;;2.83;;
14306;SDS011;7237;49.500;11.400;2023-04-06T06:23:55;5.87;;;2.90;;
14306;SDS011;7237;49.500;11.400;2023-04-06T06:26:22;4.10;;;2.73;;
14306;SDS011;7237;49.500;11.400;2023-04-06T06:28:49;5.50;;;3.60;;
14306;SDS011;7237;49.500;11.400;2023-04-06T06:31:16;4.37;;;3.07;;
14306;SDS011;7237;49.500;11.400;2023-04-06T06:33:46;5.90;;;3.43;;
14306;SDS011;7237;49.500;11.400;2023-04-06T06:36:15;4.17;;;3.20;;
14306;SDS011;7237;49.500;11.400;2023-04-06T06:38:42;5.97;;;3.50;;
14306;SDS011;7237;49.500;11.400;2023-04-06T06:41:09;3.50;;;2.77;;
14306;SDS011;7237;49.500;11.400;2023-04-06T06:43:36;7.13;;;3.23;;
14306;SDS011;7237;49.500;11.400;2023-04-06T06:46:03;5.23;;;3.17;;
14306;SDS011;7237;49.500;11.400;2023-04-06T06:48:31;5.77;;;3.40;;
14306;SDS011;7237;49.500;11.400;2023-04-06T06:50:59;2.97;;;2.67;;
14306;SDS011;7237;49.500;11.400;2023-04-06T06:53:26;4.30;;;2.80;;
14306;SDS011;7237;49.500;11.400;2023-04-06T06:55:53;4.90;;;3.17;;
14306;SDS011;7237;49.500;11.400;2023-04-06T06:58:21;5.13;;;3.50;;
14306;SDS011;7237;49.500;11.400;2023-04-06T07:00:48;4.50;;;3.00;;
14306;SDS011;7237;49.500;11.400;2023-04-06T07:03:15;3.70;;;3.30;;
14306;SDS011;7237;49.500;11.400;2023-04-06T07:05:44;3.67;;;2.87;;
14306;SDS011;7237;49.500;11.400;2023-04-06T07:08:16;3.27;;;2.77;;
14306;SDS011;7237;49.500;11.400;2023-04-06T07:10:43;3.53;;;2.60;;
14306;SDS011;7237;49.500;11.400;2023-04-06T07:13:10;3.23;;;2.80;;
14306;SDS011;7237;49.500;11.400;2023-04-06T07:15:39;4.40;;;2.93;;
14306;SDS011;7237;49.500;11.400;2023-04-06T07:18:06;3.43;;;2.90;;
14306;SDS011;7237;49.500;11.400;2023-04-06T07:20:33;4.20;;;2.77;;
14306;SDS011;7237;49.500;11.400;2023-04-06T07:23:00;3.50;;;2.77;;
14306;SDS011;7237;49.500;11.400;2023-04-06T07:25:30;4.63;;;2.97;;
14306;SDS011;7237;49.500;11.400;2023-04-06T07:27:59;3.10;;;2.53;;
14306;SDS011;7237;49.500;11.400;2023-04-06T07:30:26;5.20;;;3.00;;
14306;SDS011;7237;49.500;11.400;2023-04-06T07:32:54;4.60;;;3.10;;
14306;SDS011;7237;49.500;11.400;2023-04-06T07:35:21;3.17;;;2.87;;
14306;SDS011;7237;49.500;11.400;2023-04-06T07:37:48;4.97;;;2.90;;
14306;SDS011;7237;49.500;11.400;2023-04-06T07:40:16;3.53;;;2.87;;
14306;SDS011;7237;49.500;11.400;2023-04-06T07:42:45;5.10;;;2.80;;
14306;SDS011;7237;49.500;11.400;2023-04-06T07:45:12;3.67;;;3.10;;
14306;SDS011;7237;49.500;11.400;2023-04-06T07:47:40;3.73;;;2.80;;
14306;SDS011;7237;49.500;11.400;2023-04-06T07:50:08;4.70;;;2.90;;
14306;SDS011;7237;49.500;11.400;2023-04-06T07:52:35;3.33;;;3.03;;
14306;SDS011;7237;49.500;11.400;2023-04-06T07:55:02;4.93;;;3.10;;
14306;SDS011;7237;49.500;11.400;2023-04-06T07:57:29;4.73;;;3.57;;
14306;SDS011;7237;49.500;11.400;2023-04-06T07:59:58;5.60;;;3.03;;
14306;SDS011;7237;49.500;11.400;2023-04-06T08:02:25;4.53;;;3.33;;
14306;SDS011;7237;49.500;11.400;2023-04-06T08:04:52;4.23;;;3.00;;
14306;SDS011;7237;49.500;11.400;2023-04-06T08:07:19;5.90;;;3.23;;
14306;SDS011;7237;49.500;11.400;2023-04-06T08:09:46;3.90;;;3.27;;
14306;SDS011;7237;49.500;11.400;2023-04-06T08:12:13;5.67;;;3.37;;
14306;SDS011;7237;49.500;11.400;2023-04-06T08:14:40;3.53;;;3.20;;
14306;SDS011;7237;49.500;11.400;2023-04-06T08:17:09;4.47;;;3.70;;
14306;SDS011;7237;49.500;11.400;2023-04-06T08:19:36;3.90;;;3.47;;
14306;SDS011;7237;49.500;11.400;2023-04-06T08:22:03;4.63;;;3.23;;
14306;SDS011;7237;49.500;11.400;2023-04-06T08:24:30;3.67;;;3.33;;
14306;SDS011;7237;49.500;11.400;2023-04-06T08:26:57;6.07;;;4.03;;
14306;SDS011;7237;49.500;11.400;2023-04-06T08:29:24;9.57;;;4.07;;
14306;SDS011;7237;49.500;11.400;2023-04-06T08:31:51;4.70;;;3.90;;
14306;SDS011;7237;49.500;11.400;2023-04-06T08:34:20;5.83;;;4.30;;
14306;SDS011;7237;49.500;11.400;2023-04-06T08:36:47;4.97;;;3.90;;
14306;SDS011;7237;49.500;11.400;2023-04-06T08:39:15;6.13;;;4.10;;
14306;SDS011;7237;49.500;11.400;2023-04-06T08:41:42;5.20;;;4.03;;
14306;SDS011;7237;49.500;11.400;2023-04-06T08:44:09;4.97;;;4.00;;
14306;SDS011;7237;49.500;11.400;2023-04-06T08:46:36;7.33;;;3.97;;
14306;SDS011;7237;49.500;11.400;2023-04-06T08:49:03;6.93;;;4.23;;
14306;SDS011;7237;49.500;11.400;2023-04-06T08:51:34;4.43;;;4.00;;
14306;SDS011;7237;49.500;11.400;2023-04-06T08:54:02;5.53;;;3.77;;
14306;SDS011;7237;49.500;11.400;2023-04-06T08:56:29;7.03;;;3.80;;
14306;SDS011;7237;49.500;11.400;2023-04-06T08:58:56;5.23;;;4.10;;
14306;SDS011;7237;49.500;11.400;2023-04-06T09:01:25;5.10;;;4.10;;
14306;SDS011;7237;49.500;11.400;2023-04-06T09:03:54;6.03;;;4.53;;
14306;SDS011;7237;49.500;11.400;2023-04-06T09:06:22;5.30;;;4.10;;
14306;SDS011;7237;49.500;11.400;2023-04-06T09:08:50;9.13;;;4.00;;
14306;SDS011;7237;49.500;11.400;2023-04-06T09:11:17;4.60;;;3.57;;
14306;SDS011;7237;49.500;11.400;2023-04-06T09:13:45;5.43;;;4.17;;
14306;SDS011;7237;49.500;11.400;2023-04-06T09:16:12;5.10;;;4.00;;
14306;SDS011;7237;49.500;11.400;2023-04-06T09:18:40;5.33;;;4.50;;
14306;SDS011;7237;49.500;11.400;2023-04-06T09:21:07;4.10;;;3.70;;
14306;SDS011;7237;49.500;11.400;2023-04-06T09:23:34;5.27;;;4.20;;
14306;SDS011;7237;49.500;11.400;2023-04-06T09:26:07;4.57;;;3.60;;
14306;SDS011;7237;49.500;11.400;2023-04-06T09:28:41;6.87;;;5.43;;
14306;SDS011;7237;49.500;11.400;2023-04-06T09:31:08;10.40;;;7.20;;
14306;SDS011;7237;49.500;11.400;2023-04-06T09:33:37;5.80;;;4.40;;
14306;SDS011;7237;49.500;11.400;2023-04-06T09:36:04;7.17;;;4.03;;
14306;SDS011;7237;49.500;11.400;2023-04-06T09:38:31;5.63;;;4.27;;
14306;SDS011;7237;49.500;11.400;2023-04-06T09:40:58;5.00;;;4.00;;
14306;SDS011;7237;49.500;11.400;2023-04-06T09:43:27;6.03;;;4.50;;
14306;SDS011;7237;49.500;11.400;2023-04-06T09:45:55;4.43;;;4.03;;
14306;SDS011;7237;49.500;11.400;2023-04-06T09:48:22;4.57;;;3.83;;
14306;SDS011;7237;49.500;11.400;2023-04-06T09:50:52;4.73;;;4.13;;
14306;SDS011;7237;49.500;11.400;2023-04-06T09:53:21;4.60;;;4.20;;
14306;SDS011;7237;49.500;11.400;2023-04-06T09:55:50;5.83;;;4.40;;
14306;SDS011;7237;49.500;11.400;2023-04-06T09:58:18;4.20;;;3.80;;
14306;SDS011;7237;49.500;11.400;2023-04-06T10:00:54;5.30;;;4.80;;
14306;SDS011;7237;49.500;11.400;2023-04-06T10:03:25;4.73;;;3.83;;
14306;SDS011;7237;49.500;11.400;2023-04-06T10:05:55;4.07;;;3.67;;
14306;SDS011;7237;49.500;11.400;2023-04-06T10:08:24;4.60;;;3.53;;
14306;SDS011;7237;49.500;11.400;2023-04-06T10:10:52;4.10;;;3.60;;
14306;SDS011;7237;49.500;11.400;2023-04-06T10:13:20;4.13;;;3.53;;
14306;SDS011;7237;49.500;11.400;2023-04-06T10:15:47;4.57;;;3.87;;
14306;SDS011;7237;49.500;11.400;2023-04-06T10:18:16;4.97;;;4.10;;
14306;SDS011;7237;49.500;11.400;2023-04-06T10:20:47;4.00;;;3.67;;
14306;SDS011;7237;49.500;11.400;2023-04-06T10:23:17;3.93;;;3.60;;
14306;SDS011;7237;49.500;11.400;2023-04-06T10:25:52;4.27;;;3.87;;
14306;SDS011;7237;49.500;11.400;2023-04-06T10:28:19;4.53;;;3.40;;
14306;SDS011;7237;49.500;11.400;2023-04-06T10:30:46;3.87;;;3.43;;
14306;SDS011;7237;49.500;11.400;2023-04-06T10:33:14;4.10;;;3.70;;
14306;SDS011;7237;49.500;11.400;2023-04-06T10:35:42;4.83;;;3.77;;
14306;SDS011;7237;49.500;11.400;2023-04-06T10:38:10;5.87;;;4.03;;
14306;SDS011;7237;49.500;11.400;2023-04-06T10:40:39;4.93;;;3.67;;
14306;SDS011;7237;49.500;11.400;2023-04-06T10:43:08;4.27;;;3.87;;
14306;SDS011;7237;49.500;11.400;2023-04-06T10:45:35;3.93;;;3.53;;
14306;SDS011;7237;49.500;11.400;2023-04-06T10:48:12;4.03;;;3.50;;
14306;SDS011;7237;49.500;11.400;2023-04-06T10:50:39;3.77;;;3.40;;
14306;SDS011;7237;49.500;11.400;2023-04-06T10:53:08;6.50;;;3.70;;
14306;SDS011;7237;49.500;11.400;2023-04-06T10:55:35;4.10;;;3.50;;
14306;SDS011;7237;49.500;11.400;2023-04-06T10:58:06;6.63;;;4.47;;
14306;SDS011;7237;49.500;11.400;2023-04-06T11:00:33;4.50;;;4.10;;
14306;SDS011;7237;49.500;11.400;2023-04-06T11:03:00;3.83;;;3.43;;
14306;SDS011;7237;49.500;11.400;2023-04-06T11:05:27;4.10;;;3.70;;
14306;SDS011;7237;49.500;11.400;2023-04-06T11:07:55;5.70;;;3.60;;
14306;SDS011;7237;49.500;11.400;2023-04-06T11:10:24;5.28;;;3.80;;
14306;SDS011;7237;49.500;11.400;2023-04-06T11:12:54;3.87;;;3.57;;
14306;SDS011;7237;49.500;11.400;2023-04-06T11:15:21;4.23;;;3.83;;
14306;SDS011;7237;49.500;11.400;2023-04-06T11:17:48;4.53;;;3.60;;
14306;SDS011;7237;49.500;11.400;2023-04-06T11:20:16;4.83;;;3.53;;
14306;SDS011;7237;49.500;11.400;2023-04-06T11:22:47;6.03;;;3.60;;
14306;SDS011;7237;49.500;11.400;2023-04-06T11:25:15;4.10;;;3.70;;
14306;SDS011;7237;49.500;11.400;2023-04-06T11:27:43;3.43;;;3.13;;
14306;SDS011;7237;49.500;11.400;2023-04-06T11:30:11;3.90;;;3.50;;
14306;SDS011;7237;49.500;11.400;2023-04-06T11:32:39;4.33;;;3.60;;
14306;SDS011;7237;49.500;11.400;2023-04-06T11:35:07;4.50;;;4.10;;
14306;SDS011;7237;49.500;11.400;2023-04-06T11:37:34;4.07;;;3.70;;
14306;SDS011;7237;49.500;11.400;2023-04-06T11:40:01;4.83;;;4.17;;
14306;SDS011;7237;49.500;11.400;2023-04-06T11:42:29;4.57;;;3.70;;
14306;SDS011;7237;49.500;11.400;2023-04-06T11:44:57;4.87;;;3.70;;
14306;SDS011;7237;49.500;11.400;2023-04-06T11:47:28;4.23;;;3.83;;
14306;SDS011;7237;49.500;11.400;2023-04-06T11:49:56;5.50;;;4.10;;
14306;SDS011;7237;49.500;11.400;2023-04-06T11:52:31;5.90;;;3.80;;
14306;SDS011;7237;49.500;11.400;2023-04-06T11:54:58;4.03;;;3.57;;
14306;SDS011;7237;49.500;11.400;2023-04-06T11:57:36;4.10;;;3.37;;
14306;SDS011;7237;49.500;11.400;2023-04-06T12:00:05;4.40;;;3.70;;
14306;SDS011;7237;49.500;11.400;2023-04-06T12:02:33;3.90;;;3.60;;
14306;SDS011;7237;49.500;11.400;2023-04-06T12:05:01;4.40;;;3.83;;
14306;SDS011;7237;49.500;11.400;2023-04-06T12:07:28;5.37;;;3.87;;
14306;SDS011;7237;49.500;11.400;2023-04-06T12:09:55;4.43;;;4.03;;
14306;SDS011;7237;49.500;11.400;2023-04-06T12:12:22;4.57;;;3.70;;
14306;SDS011;7237;49.500;11.400;2023-04-06T12:14:49;4.13;;;3.70;;
14306;SDS011;7237;49.500;11.400;2023-04-06T12:17:17;4.23;;;3.57;;
14306;SDS011;7237;49.500;11.400;2023-04-06T12:19:45;4.10;;;3.60;;
14306;SDS011;7237;49.500;11.400;2023-04-06T12:22:12;4.20;;;3.47;;
14306;SDS011;7237;49.500;11.400;2023-04-06T12:24:39;4.20;;;3.63;;
14306;SDS011;7237;49.500;11.400;2023-04-06T12:27:06;4.10;;;3.80;;
14306;SDS011;7237;49.500;11.400;2023-04-06T12:29:35;5.10;;;4.03;;
14306;SDS011;7237;49.500;11.400;2023-04-06T12:32:03;5.27;;;3.60;;
14306;SDS011;7237;49.500;11.400;2023-04-06T12:34:31;4.77;;;3.73;;
14306;SDS011;7237;49.500;11.400;2023-04-06T12:36:58;6.00;;;3.23;;
14306;SDS011;7237;49.500;11.400;2023-04-06T12:39:26;3.77;;;3.47;;
14306;SDS011;7237;49.500;11.400;2023-04-06T12:41:53;3.53;;;3.23;;
14306;SDS011;7237;49.500;11.400;2023-04-06T12:44:21;3.73;;;3.43;;
14306;SDS011;7237;49.500;11.400;2023-04-06T12:46:48;5.20;;;3.97;;
14306;SDS011;7237;49.500;11.400;2023-04-06T12:49:15;4.70;;;3.37;;
14306;SDS011;7237;49.500;11.400;2023-04-06T12:51:45;4.43;;;3.63;;
14306;SDS011;7237;49.500;11.400;2023-04-06T12:54:12;3.77;;;3.43;;
14306;SDS011;7237;49.500;11.400;2023-04-06T12:56:39;4.13;;;3.70;;
14306;SDS011;7237;49.500;11.400;2023-04-06T12:59:06;3.73;;;3.43;;
14306;SDS011;7237;49.500;11.400;2023-04-06T13:01:33;5.00;;;3.80;;
14306;SDS011;7237;49.500;11.400;2023-04-06T13:04:00;3.50;;;3.20;;
14306;SDS011;7237;49.500;11.400;2023-04-06T13:06:27;4.10;;;3.70;;
14306;SDS011;7237;49.500;11.400;2023-04-06T13:08:56;3.83;;;3.33;;
14306;SDS011;7237;49.500;11.400;2023-04-06T13:11:25;4.27;;;3.43;;
14306;SDS011;7237;49.500;11.400;2023-04-06T13:13:52;3.73;;;3.23;;
14306;SDS011;7237;49.500;11.400;2023-04-06T13:16:19;6.57;;;3.80;;
14306;SDS011;7237;49.500;11.400;2023-04-06T13:18:46;3.53;;;3.23;;
14306;SDS011;7237;49.500;11.400;2023-04-06T13:21:14;3.97;;;3.60;;
14306;SDS011;7237;49.500;11.400;2023-04-06T13:23:42;3.50;;;3.20;;
14306;SDS011;7237;49.500;11.400;2023-04-06T13:26:10;4.13;;;3.60;;
14306;SDS011;7237;49.500;11.400;2023-04-06T13:28:38;4.07;;;3.67;;
14306;SDS011;7237;49.500;11.400;2023-04-06T13:31:05;4.13;;;3.40;;
14306;SDS011;7237;49.500;11.400;2023-04-06T13:33:33;4.87;;;3.60;;
14306;SDS011;7237;49.500;11.400;2023-04-06T13:36:00;4.20;;;3.53;;
14306;SDS011;7237;49.500;11.400;2023-04-06T13:38:27;4.10;;;3.43;;
14306;SDS011;7237;49.500;11.400;2023-04-06T13:40:54;4.40;;;3.57;;
14306;SDS011;7237;49.500;11.400;2023-04-06T13:43:22;3.93;;;3.63;;
14306;SDS011;7237;49.500;11.400;2023-04-06T13:45:51;3.63;;;3.13;;
14306;SDS011;7237;49.500;11.400;2023-04-06T13:48:19;3.60;;;3.30;;
14306;SDS011;7237;49.500;11.400;2023-04-06T13:50:46;3.70;;;3.40;;
14306;SDS011;7237;49.500;11.400;2023-04-06T13:53:13;5.27;;;3.37;;
14306;SDS011;7237;49.500;11.400;2023-04-06T13:55:40;3.77;;;3.40;;
14306;SDS011;7237;49.500;11.400;2023-04-06T13:58:08;3.77;;;3.33;;
14306;SDS011;7237;49.500;11.400;2023-04-06T14:00:36;3.40;;;3.10;;
14306;SDS011;7237;49.500;11.400;2023-04-06T14:03:03;3.70;;;3.33;;
14306;SDS011;7237;49.500;11.400;2023-04-06T14:05:31;3.40;;;2.90;;
14306;SDS011;7237;49.500;11.400;2023-04-06T14:07:58;5.07;;;3.80;;
14306;SDS011;7237;49.500;11.400;2023-04-06T14:10:25;3.83;;;3.53;;
14306;SDS011;7237;49.500;11.400;2023-04-06T14:12:52;5.97;;;3.90;;
14306;SDS011;7237;49.500;11.400;2023-04-06T14:15:19;4.67;;;3.50;;
14306;SDS011;7237;49.500;11.400;2023-04-06T14:17:48;3.70;;;3.40;;
14306;SDS011;7237;49.500;11.400;2023-04-06T14:20:16;3.40;;;3.10;;
14306;SDS011;7237;49.500;11.400;2023-04-06T14:22:43;4.30;;;3.50;;
14306;SDS011;7237;49.500;11.400;2023-04-06T14:25:11;8.53;;;3.77;;
14306;SDS011;7237;49.500;11.400;2023-04-06T14:27:38;3.53;;;3.23;;
14306;SDS011;7237;49.500;11.400;2023-04-06T14:30:05;3.83;;;3.33;;
14306;SDS011;7237;49.500;11.400;2023-04-06T14:32:33;4.07;;;3.13;;
14306;SDS011;7237;49.500;11.400;2023-04-06T14:35:02;5.03;;;3.70;;
14306;SDS011;7237;49.500;11.400;2023-04-06T14:37:29;4.03;;;3.63;;
14306;SDS011;7237;49.500;11.400;2023-04-06T14:39:56;8.07;;;3.30;;
14306;SDS011;7237;49.500;11.400;2023-04-06T14:42:23;3.03;;;2.73;;
14306;SDS011;7237;49.500;11.400;2023-04-06T14:44:51;6.60;;;3.50;;
14306;SDS011;7237;49.500;11.400;2023-04-06T14:47:18;3.93;;;3.10;;
14306;SDS011;7237;49.500;11.400;2023-04-06T14:49:46;4.17;;;3.77;;